Caribe Navigator — V2PW6 — position and weather

sailwx.info

Track history (hours):
 
Tides and Currents Weather Stations Pressure Air Temp Water Temp Dewpoint Dewpoint Depression Visibility Wind Speed Wind Dir Waves Ship Positions

Caribe Navigator

Last reported at 2014-Aug-28 08:32 UTC. Time now 2014-Aug-28 09:22 UTC.
Position N 26°05' W 080°07'.

Length 100 m; draft 4.9 m.

Type: Cargo ship. MMSI: 305289000.

Date/timePositionNaut miles runAvg speedWind from/ knotsBaromVisibWave heightAir tempDewpointWater temp
2014-Aug-28 08:32N 26°05' W 080°07'0 0.0
2014-Aug-28 07:32N 26°05' W 080°07'0 0.0
2014-Aug-28 06:32N 26°05' W 080°07'0 0.0
2014-Aug-28 05:32N 26°05' W 080°07'0 0.0
2014-Aug-28 04:32N 26°05' W 080°07'0 0.0
2014-Aug-28 03:23N 26°05' W 080°07'0 0.0
2014-Aug-28 02:23N 26°05' W 080°07'0 0.0
2014-Aug-28 01:26N 26°05' W 080°07'0 0.0
2014-Aug-28 00:26N 26°05' W 080°07'0 0.0
2014-Aug-27 23:26N 26°05' W 080°07'0 0.0
2014-Aug-27 22:26N 26°05' W 080°07'0 0.0
2014-Aug-27 21:26N 26°05' W 080°07'0 0.0
2014-Aug-27 20:29N 26°05' W 080°07'0 0.0
2014-Aug-27 19:29N 26°05' W 080°07'0 0.0
2014-Aug-27 18:29N 26°05' W 080°07'0 0.0
2014-Aug-27 17:29N 26°05' W 080°07'0 0.0
2014-Aug-27 16:29N 26°05' W 080°07'0 0.0
2014-Aug-27 15:32N 26°05' W 080°07'0 0.4
2014-Aug-27 14:33N 26°06' W 080°07'1110.6
2014-Aug-27 13:33N 25°55' W 080°03'1514.3
2014-Aug-27 12:30N 25°41' W 079°60'  
2014-Aug-22 02:18N 25°36' W 080°02'811.0
2014-Aug-22 01:33N 25°45' W 080°02'1010.3
2014-Aug-22 00:33N 25°55' W 080°04'10 9.8
2014-Aug-21 23:33N 26°05' W 080°05'2 2.4
2014-Aug-21 22:32N 26°05' W 080°07'0 0.0
2014-Aug-21 21:32N 26°05' W 080°07'0 0.0
2014-Aug-21 20:32N 26°05' W 080°07'0 0.0
2014-Aug-21 19:32N 26°05' W 080°07'0 0.0
2014-Aug-21 18:32N 26°05' W 080°07'0 0.0
2014-Aug-21 17:32N 26°05' W 080°07'0 0.0
2014-Aug-21 16:32N 26°05' W 080°07'0 0.0
2014-Aug-21 15:32N 26°05' W 080°07'0 0.0
2014-Aug-21 14:32N 26°05' W 080°07'0 0.0
2014-Aug-21 13:26N 26°05' W 080°07'0 0.0
2014-Aug-21 12:26N 26°05' W 080°07'0 0.0
2014-Aug-21 11:26N 26°05' W 080°07'0 0.0
2014-Aug-21 10:29N 26°05' W 080°07'0 0.0
2014-Aug-21 09:29N 26°05' W 080°07'0 0.0
2014-Aug-21 08:29N 26°05' W 080°07'0 0.0
2014-Aug-21 07:29N 26°05' W 080°07'0 0.0
2014-Aug-21 06:29N 26°05' W 080°07'0 0.0
2014-Aug-21 05:32N 26°05' W 080°07'0 0.0
2014-Aug-21 04:32N 26°05' W 080°07'0 0.0
2014-Aug-21 03:32N 26°05' W 080°07'0 0.0
2014-Aug-21 02:32N 26°05' W 080°07'0 0.0
2014-Aug-21 01:32N 26°05' W 080°07'0 0.0
2014-Aug-21 00:32N 26°05' W 080°07'0 0.0
2014-Aug-20 23:32N 26°05' W 080°07'0 0.0
2014-Aug-20 22:32N 26°05' W 080°07'0 0.0
2014-Aug-20 21:20N 26°05' W 080°07'0 0.0
2014-Aug-20 20:32N 26°05' W 080°07'0 0.0
2014-Aug-20 19:23N 26°05' W 080°07'0 0.0
2014-Aug-20 18:32N 26°05' W 080°07'0 0.0
2014-Aug-20 17:32N 26°05' W 080°07'1 1.3
2014-Aug-20 16:33N 26°06' W 080°06'  
Track history (hours):
 
Tides and Currents Weather Stations Pressure Air Temp Water Temp Dewpoint Dewpoint Depression Visibility Wind Speed Wind Dir Waves Ship Positions

Caribe Navigator

Last reported at 2014-Aug-28 08:32 UTC. Time now 2014-Aug-28 09:22 UTC.
Position N 26°05' W 080°07'.

Length 100 m; draft 4.9 m.

Type: Cargo ship. MMSI: 305289000.

Date/timePositionNaut miles runAvg speedWind from/ knotsBaromVisibWave heightAir tempDewpointWater temp
2014-Aug-28 08:32N 26°05' W 080°07'0 0.0
2014-Aug-28 07:32N 26°05' W 080°07'0 0.0
2014-Aug-28 06:32N 26°05' W 080°07'0 0.0
2014-Aug-28 05:32N 26°05' W 080°07'0 0.0
2014-Aug-28 04:32N 26°05' W 080°07'0 0.0
2014-Aug-28 03:23N 26°05' W 080°07'0 0.0
2014-Aug-28 02:23N 26°05' W 080°07'0 0.0
2014-Aug-28 01:26N 26°05' W 080°07'0 0.0
2014-Aug-28 00:26N 26°05' W 080°07'0 0.0
2014-Aug-27 23:26N 26°05' W 080°07'0 0.0
2014-Aug-27 22:26N 26°05' W 080°07'0 0.0
2014-Aug-27 21:26N 26°05' W 080°07'0 0.0
2014-Aug-27 20:29N 26°05' W 080°07'0 0.0
2014-Aug-27 19:29N 26°05' W 080°07'0 0.0
2014-Aug-27 18:29N 26°05' W 080°07'0 0.0
2014-Aug-27 17:29N 26°05' W 080°07'0 0.0
2014-Aug-27 16:29N 26°05' W 080°07'0 0.0
2014-Aug-27 15:32N 26°05' W 080°07'0 0.4
2014-Aug-27 14:33N 26°06' W 080°07'1110.6
2014-Aug-27 13:33N 25°55' W 080°03'1514.3
2014-Aug-27 12:30N 25°41' W 079°60'  
2014-Aug-22 02:18N 25°36' W 080°02'811.0
2014-Aug-22 01:33N 25°45' W 080°02'1010.3
2014-Aug-22 00:33N 25°55' W 080°04'10 9.8
2014-Aug-21 23:33N 26°05' W 080°05'2 2.4
2014-Aug-21 22:32N 26°05' W 080°07'0 0.0
2014-Aug-21 21:32N 26°05' W 080°07'0 0.0
2014-Aug-21 20:32N 26°05' W 080°07'0 0.0
2014-Aug-21 19:32N 26°05' W 080°07'0 0.0
2014-Aug-21 18:32N 26°05' W 080°07'0 0.0
2014-Aug-21 17:32N 26°05' W 080°07'0 0.0
2014-Aug-21 16:32N 26°05' W 080°07'0 0.0
2014-Aug-21 15:32N 26°05' W 080°07'0 0.0
2014-Aug-21 14:32N 26°05' W 080°07'0 0.0
2014-Aug-21 13:26N 26°05' W 080°07'0 0.0
2014-Aug-21 12:26N 26°05' W 080°07'0 0.0
2014-Aug-21 11:26N 26°05' W 080°07'0 0.0
2014-Aug-21 10:29N 26°05' W 080°07'0 0.0
2014-Aug-21 09:29N 26°05' W 080°07'0 0.0
2014-Aug-21 08:29N 26°05' W 080°07'0 0.0
2014-Aug-21 07:29N 26°05' W 080°07'0 0.0
2014-Aug-21 06:29N 26°05' W 080°07'0 0.0
2014-Aug-21 05:32N 26°05' W 080°07'0 0.0
2014-Aug-21 04:32N 26°05' W 080°07'0 0.0
2014-Aug-21 03:32N 26°05' W 080°07'0 0.0
2014-Aug-21 02:32N 26°05' W 080°07'0 0.0
2014-Aug-21 01:32N 26°05' W 080°07'0 0.0
2014-Aug-21 00:32N 26°05' W 080°07'0 0.0
2014-Aug-20 23:32N 26°05' W 080°07'0 0.0
2014-Aug-20 22:32N 26°05' W 080°07'0 0.0
2014-Aug-20 21:20N 26°05' W 080°07'0 0.0
2014-Aug-20 20:32N 26°05' W 080°07'0 0.0
2014-Aug-20 19:23N 26°05' W 080°07'0 0.0
2014-Aug-20 18:32N 26°05' W 080°07'0 0.0
2014-Aug-20 17:32N 26°05' W 080°07'1 1.3
2014-Aug-20 16:33N 26°06' W 080°06'  

Dump ship's entire track history